createdAt,value
2023-03-22T00:01:12.603Z,19.82
2023-03-22T00:03:39.086Z,19.82
2023-03-22T00:06:05.669Z,19.81
2023-03-22T00:08:31.997Z,19.80
2023-03-22T00:10:58.348Z,19.79
2023-03-22T00:13:24.681Z,19.80
2023-03-22T00:15:51.040Z,19.79
2023-03-22T00:18:17.496Z,19.79
2023-03-22T00:20:47.173Z,19.79
2023-03-22T00:23:13.536Z,19.77
2023-03-22T00:25:39.858Z,19.78
2023-03-22T00:28:06.194Z,19.76
2023-03-22T00:30:32.572Z,19.76
2023-03-22T00:32:58.948Z,19.77
2023-03-22T00:35:25.735Z,19.75
2023-03-22T00:37:52.105Z,19.76
2023-03-22T00:40:18.505Z,19.75
2023-03-22T00:42:44.871Z,19.76
2023-03-22T00:45:11.210Z,19.75
2023-03-22T00:47:37.563Z,19.74
2023-03-22T00:50:04.023Z,19.74
2023-03-22T00:52:31.374Z,19.74
2023-03-22T00:54:58.511Z,19.73
2023-03-22T00:57:25.220Z,19.73
2023-03-22T00:59:53.838Z,19.72
2023-03-22T01:02:20.232Z,19.71
2023-03-22T01:04:47.862Z,19.70
2023-03-22T01:07:17.698Z,19.70
2023-03-22T01:09:44.445Z,19.70
2023-03-22T01:12:14.121Z,19.69
2023-03-22T01:14:40.692Z,19.68
2023-03-22T01:17:07.267Z,19.67
2023-03-22T01:19:34.046Z,19.67
2023-03-22T01:22:00.648Z,19.67
2023-03-22T01:24:27.012Z,19.67
2023-03-22T01:26:53.481Z,19.69
2023-03-22T01:29:20.149Z,19.66
2023-03-22T01:31:46.537Z,19.66
2023-03-22T01:34:13.433Z,19.67
2023-03-22T01:36:39.771Z,19.66
2023-03-22T01:39:06.789Z,19.65
2023-03-22T01:41:34.966Z,19.65
2023-03-22T01:44:13.756Z,19.64
2023-03-22T01:46:40.531Z,19.64
2023-03-22T01:49:07.915Z,19.64
2023-03-22T01:51:34.367Z,19.64
2023-03-22T01:54:29.932Z,19.63
2023-03-22T01:56:59.182Z,19.62
2023-03-22T01:59:33.395Z,19.63
2023-03-22T02:02:14.817Z,19.64
2023-03-22T02:04:41.232Z,19.63
2023-03-22T02:23:55.851Z,19.60
2023-03-22T02:26:33.359Z,19.60
2023-03-22T02:29:02.647Z,19.60
2023-03-22T02:31:47.866Z,19.59
2023-03-22T02:34:28.604Z,19.59
2023-03-22T02:37:15.422Z,19.58
2023-03-22T02:39:55.768Z,19.56
2023-03-22T02:42:27.450Z,19.55
2023-03-22T02:44:53.685Z,19.56
2023-03-22T02:47:24.212Z,19.55
2023-03-22T02:49:54.088Z,19.56
2023-03-22T02:52:25.758Z,19.56
2023-03-22T02:55:11.210Z,19.56
2023-03-22T02:57:39.391Z,19.57
2023-03-22T03:00:10.524Z,19.57
2023-03-22T03:02:37.001Z,19.56
2023-03-22T03:05:03.444Z,19.56
2023-03-22T03:07:29.806Z,19.54
2023-03-22T03:09:56.314Z,19.54
2023-03-22T03:12:25.961Z,19.54
2023-03-22T03:14:54.427Z,19.54
2023-03-22T03:17:23.720Z,19.53
2023-03-22T03:19:57.430Z,19.52
2023-03-22T03:22:35.631Z,19.51
2023-03-22T03:25:01.892Z,19.52
2023-03-22T03:27:30.640Z,19.51
2023-03-22T03:30:02.969Z,19.51
2023-03-22T03:32:36.567Z,19.52
2023-03-22T03:35:25.422Z,19.52
2023-03-22T03:37:57.525Z,19.52
2023-03-22T03:40:26.391Z,19.54
2023-03-22T03:42:53.201Z,19.57
2023-03-22T03:45:19.570Z,19.59
2023-03-22T03:47:46.571Z,19.62
2023-03-22T03:50:13.142Z,19.64
2023-03-22T03:52:39.480Z,19.65
2023-03-22T03:55:06.185Z,19.66
2023-03-22T03:57:34.658Z,19.66
2023-03-22T04:00:01.016Z,19.66
2023-03-22T04:02:40.352Z,19.66
2023-03-22T04:05:08.390Z,19.66
2023-03-22T04:07:34.778Z,19.68
2023-03-22T04:10:01.166Z,19.67
2023-03-22T04:12:31.731Z,19.70
2023-03-22T04:15:12.145Z,19.71
2023-03-22T04:17:39.456Z,19.72
2023-03-22T04:20:07.174Z,19.74
2023-03-22T04:22:38.371Z,19.75
2023-03-22T04:25:05.424Z,19.75
2023-03-22T04:27:32.041Z,19.75
2023-03-22T04:30:01.622Z,19.75
2023-03-22T04:33:06.968Z,19.75
2023-03-22T04:35:57.301Z,19.74
2023-03-22T04:38:29.430Z,19.74
2023-03-22T04:40:55.845Z,19.75
2023-03-22T04:43:34.796Z,19.75
2023-03-22T04:46:03.655Z,19.76
2023-03-22T04:48:39.821Z,19.77
2023-03-22T04:51:06.694Z,19.78
2023-03-22T04:53:38.847Z,19.79
2023-03-22T04:56:07.030Z,19.80
2023-03-22T04:58:34.521Z,19.79
2023-03-22T05:01:01.104Z,19.79
2023-03-22T05:03:27.444Z,19.80
2023-03-22T05:05:57.459Z,19.80
2023-03-22T05:08:28.917Z,19.79
2023-03-22T05:10:55.721Z,19.79
2023-03-22T05:13:22.813Z,19.79
2023-03-22T05:15:49.397Z,19.79
2023-03-22T05:18:20.511Z,19.80
2023-03-22T05:20:47.099Z,19.81
2023-03-22T05:23:19.162Z,19.81
2023-03-22T05:25:48.401Z,19.83
2023-03-22T05:28:16.646Z,19.84
2023-03-22T05:30:55.894Z,19.83
2023-03-22T05:33:31.901Z,19.84
2023-03-22T05:35:58.327Z,19.83
2023-03-22T05:38:27.390Z,19.84
2023-03-22T05:40:56.902Z,19.84
2023-03-22T05:43:23.496Z,19.82
2023-03-22T05:45:50.946Z,19.84
2023-03-22T05:48:32.663Z,19.82
2023-03-22T05:50:59.420Z,19.84
2023-03-22T05:53:28.462Z,19.84
2023-03-22T05:56:00.647Z,19.85
2023-03-22T05:58:30.553Z,19.86
2023-03-22T06:01:00.860Z,19.87
2023-03-22T06:03:48.447Z,19.90
2023-03-22T06:06:23.837Z,19.90
2023-03-22T06:09:14.175Z,19.91
2023-03-22T06:11:42.697Z,19.92
2023-03-22T06:14:09.236Z,19.91
2023-03-22T06:16:54.989Z,19.96
2023-03-22T06:19:21.554Z,20.00
2023-03-22T06:21:48.009Z,19.99
2023-03-22T06:24:16.015Z,19.96
2023-03-22T06:26:42.385Z,19.99
2023-03-22T06:29:08.744Z,19.99
2023-03-22T06:31:35.437Z,19.99
2023-03-22T06:34:04.822Z,20.01
2023-03-22T06:36:36.916Z,20.02
2023-03-22T06:39:10.723Z,20.00
2023-03-22T06:41:40.736Z,19.71
2023-03-22T06:44:07.377Z,18.66
2023-03-22T06:46:43.617Z,18.78
2023-03-22T06:49:22.721Z,14.76
2023-03-22T06:51:52.552Z,16.85
2023-03-22T06:54:19.470Z,18.16
2023-03-22T06:56:46.009Z,18.70
2023-03-22T06:59:37.638Z,18.76
2023-03-22T07:02:03.971Z,18.22
2023-03-22T07:04:30.863Z,17.67
2023-03-22T07:06:57.270Z,17.25
2023-03-22T07:09:51.153Z,19.09
2023-03-22T07:12:18.623Z,19.76
2023-03-22T07:14:45.459Z,19.97
2023-03-22T07:17:26.743Z,20.17
2023-03-22T07:19:53.259Z,20.19
2023-03-22T07:22:22.298Z,20.28
2023-03-22T07:24:57.729Z,20.10
2023-03-22T07:27:27.239Z,19.99
2023-03-22T07:29:54.163Z,19.87
2023-03-22T07:32:21.236Z,20.28
2023-03-22T07:34:58.338Z,20.19
2023-03-22T07:37:24.697Z,20.19
2023-03-22T07:39:51.050Z,20.31
2023-03-22T07:42:17.596Z,20.38
2023-03-22T07:45:04.152Z,20.45
2023-03-22T07:47:50.612Z,20.02
2023-03-22T07:50:17.615Z,19.85
2023-03-22T07:52:46.068Z,19.80
2023-03-22T07:55:13.213Z,19.76
2023-03-22T07:57:39.646Z,19.73
2023-03-22T08:00:08.321Z,19.69
2023-03-22T08:02:48.175Z,19.64
2023-03-22T08:05:30.848Z,19.63
2023-03-22T08:08:01.202Z,19.62
2023-03-22T08:10:27.734Z,19.62
2023-03-22T08:12:54.584Z,19.62
2023-03-22T08:15:23.887Z,19.60
2023-03-22T08:17:50.384Z,19.60
2023-03-22T08:20:29.128Z,19.59
2023-03-22T08:23:00.047Z,19.72
2023-03-22T08:25:26.392Z,20.12
2023-03-22T08:27:56.002Z,20.38
2023-03-22T08:30:26.751Z,20.45
2023-03-22T08:32:53.643Z,20.79
2023-03-22T08:35:20.724Z,21.04
2023-03-22T08:37:47.156Z,21.09
2023-03-22T08:40:15.154Z,21.12
2023-03-22T08:42:54.100Z,21.17
2023-03-22T08:45:20.496Z,21.15
2023-03-22T08:47:53.294Z,21.25
2023-03-22T08:50:23.325Z,21.34
2023-03-22T08:52:57.965Z,21.43
2023-03-22T08:55:27.210Z,21.47
2023-03-22T08:58:19.990Z,21.51
2023-03-22T09:00:55.586Z,21.50
2023-03-22T09:03:25.849Z,21.26
2023-03-22T09:05:52.187Z,21.13
2023-03-22T09:08:19.811Z,21.13
2023-03-22T09:10:51.314Z,21.21
2023-03-22T09:13:20.335Z,21.29
2023-03-22T09:15:53.596Z,21.33
2023-03-22T09:18:25.827Z,21.40
2023-03-22T09:20:54.050Z,21.43
2023-03-22T09:23:25.031Z,21.48
2023-03-22T09:25:52.008Z,21.43
2023-03-22T09:28:21.844Z,21.48
2023-03-22T09:30:48.387Z,21.27
2023-03-22T09:33:16.101Z,21.15
2023-03-22T09:35:44.933Z,21.15
2023-03-22T09:38:13.699Z,21.16
2023-03-22T09:40:46.520Z,20.96
2023-03-22T09:43:12.938Z,20.81
2023-03-22T09:45:41.703Z,21.05
2023-03-22T09:48:27.887Z,20.97
2023-03-22T09:50:54.317Z,20.99
2023-03-22T09:53:20.984Z,21.08
2023-03-22T09:55:50.836Z,21.19
2023-03-22T09:58:19.807Z,21.22
2023-03-22T10:00:48.246Z,21.27
2023-03-22T10:03:32.968Z,21.48
2023-03-22T10:06:02.938Z,21.51
2023-03-22T10:08:48.132Z,21.51
2023-03-22T10:11:19.617Z,21.50
2023-03-22T10:13:53.376Z,21.53
2023-03-22T10:16:25.056Z,21.48
2023-03-22T10:18:51.477Z,21.49
2023-03-22T10:21:17.803Z,21.39
2023-03-22T10:23:50.260Z,21.27
2023-03-22T10:26:24.870Z,21.23
2023-03-22T10:28:56.285Z,21.28
2023-03-22T10:31:22.690Z,21.29
2023-03-22T10:33:51.928Z,21.30
2023-03-22T10:36:19.637Z,21.29
2023-03-22T10:38:47.046Z,21.31
2023-03-22T10:41:13.819Z,21.41
2023-03-22T10:43:40.154Z,21.53
2023-03-22T10:46:08.084Z,21.44
2023-03-22T10:48:35.322Z,21.40
2023-03-22T10:51:01.700Z,21.40
2023-03-22T10:53:40.734Z,21.37
2023-03-22T10:56:11.257Z,21.17
2023-03-22T10:58:37.616Z,20.87
2023-03-22T11:01:17.219Z,20.85
2023-03-22T11:03:44.392Z,20.84
2023-03-22T11:06:13.471Z,20.79
2023-03-22T11:08:40.728Z,20.76
2023-03-22T11:11:07.722Z,20.68
2023-03-22T11:13:34.051Z,20.69
2023-03-22T11:16:03.432Z,20.73
2023-03-22T11:18:31.116Z,20.64
2023-03-22T11:20:58.708Z,20.79
2023-03-22T11:23:25.283Z,20.87
2023-03-22T11:25:51.964Z,21.00
2023-03-22T11:28:19.248Z,21.04
2023-03-22T11:30:57.748Z,20.97
2023-03-22T11:33:25.938Z,21.03
2023-03-22T11:35:56.225Z,21.06
2023-03-22T11:38:26.010Z,20.97
2023-03-22T11:40:54.034Z,20.96
2023-03-22T11:43:21.000Z,21.01
2023-03-22T11:45:48.153Z,20.99
2023-03-22T11:48:24.588Z,21.01
2023-03-22T11:50:52.706Z,21.07
2023-03-22T11:53:23.062Z,21.23
2023-03-22T11:55:49.830Z,21.30
2023-03-22T11:58:24.599Z,21.53
2023-03-22T12:00:52.391Z,21.61
2023-03-22T12:03:20.250Z,21.28
2023-03-22T12:05:47.632Z,21.12
2023-03-22T12:08:42.716Z,21.14
2023-03-22T12:11:11.424Z,21.20
2023-03-22T12:13:51.435Z,21.17
2023-03-22T12:16:21.735Z,21.21
2023-03-22T12:19:05.226Z,21.20
2023-03-22T12:21:31.606Z,21.18
2023-03-22T12:23:58.999Z,20.95
2023-03-22T12:26:26.307Z,21.04
2023-03-22T12:28:56.679Z,21.26
2023-03-22T12:31:27.788Z,21.36
2023-03-22T12:33:54.445Z,21.12
2023-03-22T12:36:22.034Z,21.03
2023-03-22T12:38:49.504Z,21.36
2023-03-22T12:41:16.654Z,21.65
2023-03-22T12:43:45.620Z,21.76
2023-03-22T12:46:17.457Z,21.49
2023-03-22T12:48:46.612Z,21.52
2023-03-22T12:51:14.129Z,21.48
2023-03-22T12:53:44.868Z,21.47
2023-03-22T12:56:32.967Z,21.49
2023-03-22T12:59:01.297Z,21.46
2023-03-22T13:01:33.333Z,21.47
2023-03-22T13:03:59.822Z,21.45
2023-03-22T13:06:45.324Z,21.47
2023-03-22T13:09:18.473Z,21.46
2023-03-22T13:11:48.885Z,21.49
2023-03-22T13:14:34.236Z,21.51
2023-03-22T13:17:01.087Z,21.52
2023-03-22T13:19:33.003Z,21.48
2023-03-22T13:22:15.897Z,21.50
2023-03-22T13:24:58.269Z,21.43
2023-03-22T13:27:35.384Z,21.50
2023-03-22T13:30:04.972Z,21.53
2023-03-22T13:32:33.270Z,21.58
2023-03-22T13:34:59.683Z,21.52
2023-03-22T13:37:37.863Z,21.64
2023-03-22T13:40:13.507Z,21.52
2023-03-22T13:42:39.972Z,21.46
2023-03-22T13:45:09.820Z,21.44
2023-03-22T13:47:37.009Z,21.47
2023-03-22T13:50:14.565Z,21.51
2023-03-22T13:52:45.901Z,21.39
2023-03-22T13:55:35.738Z,21.59
2023-03-22T13:58:02.796Z,21.60
2023-03-22T14:00:29.294Z,21.63
2023-03-22T14:02:56.131Z,21.71
2023-03-22T14:05:22.807Z,21.74
2023-03-22T14:07:50.753Z,21.73
2023-03-22T14:10:21.448Z,21.74
2023-03-22T14:12:47.743Z,21.56
2023-03-22T14:15:21.792Z,21.45
2023-03-22T14:17:50.646Z,21.39
2023-03-22T14:20:19.097Z,21.37
